sensor_id;sensor_type;location;lat;lon;timestamp;P1;durP1;ratioP1;P2;durP2;ratioP2
32407;SDS011;18869;55.970;37.502;2022-10-23T00:01:41;8.67;;;7.67;;
32407;SDS011;18869;55.970;37.502;2022-10-23T00:04:10;10.30;;;7.97;;
32407;SDS011;18869;55.970;37.502;2022-10-23T00:06:39;8.87;;;7.40;;
32407;SDS011;18869;55.970;37.502;2022-10-23T00:09:08;11.73;;;8.83;;
32407;SDS011;18869;55.970;37.502;2022-10-23T00:11:37;12.50;;;8.03;;
32407;SDS011;18869;55.970;37.502;2022-10-23T00:14:07;11.27;;;8.33;;
32407;SDS011;18869;55.970;37.502;2022-10-23T00:16:36;14.10;;;8.67;;
32407;SDS011;18869;55.970;37.502;2022-10-23T00:19:04;13.57;;;9.27;;
32407;SDS011;18869;55.970;37.502;2022-10-23T00:21:32;9.23;;;7.60;;
32407;SDS011;18869;55.970;37.502;2022-10-23T00:24:04;11.57;;;8.93;;
32407;SDS011;18869;55.970;37.502;2022-10-23T00:26:33;10.53;;;8.73;;
32407;SDS011;18869;55.970;37.502;2022-10-23T00:29:02;12.47;;;8.73;;
32407;SDS011;18869;55.970;37.502;2022-10-23T00:31:30;12.73;;;8.90;;
32407;SDS011;18869;55.970;37.502;2022-10-23T00:34:00;10.30;;;8.73;;
32407;SDS011;18869;55.970;37.502;2022-10-23T00:36:28;14.90;;;10.00;;
32407;SDS011;18869;55.970;37.502;2022-10-23T00:38:56;11.33;;;9.07;;
32407;SDS011;18869;55.970;37.502;2022-10-23T00:41:25;12.60;;;8.80;;
32407;SDS011;18869;55.970;37.502;2022-10-23T00:44:02;13.73;;;9.57;;
32407;SDS011;18869;55.970;37.502;2022-10-23T00:46:32;10.70;;;8.67;;
32407;SDS011;18869;55.970;37.502;2022-10-23T00:49:02;11.07;;;9.53;;
32407;SDS011;18869;55.970;37.502;2022-10-23T00:51:30;11.63;;;9.77;;
32407;SDS011;18869;55.970;37.502;2022-10-23T00:54:00;11.87;;;9.67;;
32407;SDS011;18869;55.970;37.502;2022-10-23T00:56:28;13.83;;;10.43;;
32407;SDS011;18869;55.970;37.502;2022-10-23T00:58:57;12.30;;;9.43;;
32407;SDS011;18869;55.970;37.502;2022-10-23T01:01:25;12.10;;;9.03;;
32407;SDS011;18869;55.970;37.502;2022-10-23T01:03:52;10.43;;;9.27;;
32407;SDS011;18869;55.970;37.502;2022-10-23T01:06:25;12.53;;;9.90;;
32407;SDS011;18869;55.970;37.502;2022-10-23T01:09:00;14.63;;;10.33;;
32407;SDS011;18869;55.970;37.502;2022-10-23T01:11:34;12.23;;;9.67;;
32407;SDS011;18869;55.970;37.502;2022-10-23T01:14:07;15.93;;;10.93;;
32407;SDS011;18869;55.970;37.502;2022-10-23T01:16:41;13.00;;;10.27;;
32407;SDS011;18869;55.970;37.502;2022-10-23T01:19:15;12.37;;;9.60;;
32407;SDS011;18869;55.970;37.502;2022-10-23T01:21:52;14.37;;;10.07;;
32407;SDS011;18869;55.970;37.502;2022-10-23T01:24:34;10.23;;;8.93;;
32407;SDS011;18869;55.970;37.502;2022-10-23T01:27:22;11.67;;;9.10;;
32407;SDS011;18869;55.970;37.502;2022-10-23T01:29:55;17.00;;;9.53;;
32407;SDS011;18869;55.970;37.502;2022-10-23T01:32:32;11.87;;;8.20;;
32407;SDS011;18869;55.970;37.502;2022-10-23T01:35:04;11.43;;;8.33;;
32407;SDS011;18869;55.970;37.502;2022-10-23T01:37:36;14.17;;;9.10;;
32407;SDS011;18869;55.970;37.502;2022-10-23T01:40:08;13.83;;;9.10;;
32407;SDS011;18869;55.970;37.502;2022-10-23T01:42:44;13.37;;;8.77;;
32407;SDS011;18869;55.970;37.502;2022-10-23T01:45:15;9.27;;;8.10;;
32407;SDS011;18869;55.970;37.502;2022-10-23T01:47:45;9.97;;;8.97;;
32407;SDS011;18869;55.970;37.502;2022-10-23T01:50:15;11.47;;;9.07;;
32407;SDS011;18869;55.970;37.502;2022-10-23T01:52:44;10.97;;;8.13;;
32407;SDS011;18869;55.970;37.502;2022-10-23T01:55:11;11.67;;;9.10;;
32407;SDS011;18869;55.970;37.502;2022-10-23T01:57:40;10.23;;;8.57;;
32407;SDS011;18869;55.970;37.502;2022-10-23T02:00:12;9.80;;;8.80;;
32407;SDS011;18869;55.970;37.502;2022-10-23T02:02:49;11.70;;;10.03;;
32407;SDS011;18869;55.970;37.502;2022-10-23T02:05:20;9.80;;;8.60;;
32407;SDS011;18869;55.970;37.502;2022-10-23T02:07:48;13.03;;;10.13;;
32407;SDS011;18869;55.970;37.502;2022-10-23T02:10:16;11.93;;;9.00;;
32407;SDS011;18869;55.970;37.502;2022-10-23T02:12:48;11.00;;;9.60;;
32407;SDS011;18869;55.970;37.502;2022-10-23T02:15:37;10.80;;;9.70;;
32407;SDS011;18869;55.970;37.502;2022-10-23T02:18:11;16.57;;;9.30;;
32407;SDS011;18869;55.970;37.502;2022-10-23T02:20:45;10.70;;;8.93;;
32407;SDS011;18869;55.970;37.502;2022-10-23T02:23:16;14.47;;;9.87;;
32407;SDS011;18869;55.970;37.502;2022-10-23T02:25:46;12.50;;;9.17;;
32407;SDS011;18869;55.970;37.502;2022-10-23T02:28:21;13.33;;;8.60;;
32407;SDS011;18869;55.970;37.502;2022-10-23T02:30:56;12.43;;;10.13;;
32407;SDS011;18869;55.970;37.502;2022-10-23T02:33:26;11.60;;;9.27;;
32407;SDS011;18869;55.970;37.502;2022-10-23T02:35:54;13.70;;;9.47;;
32407;SDS011;18869;55.970;37.502;2022-10-23T02:38:25;11.73;;;8.83;;
32407;SDS011;18869;55.970;37.502;2022-10-23T02:40:55;11.87;;;9.97;;
32407;SDS011;18869;55.970;37.502;2022-10-23T02:43:26;13.93;;;10.30;;
32407;SDS011;18869;55.970;37.502;2022-10-23T02:45:58;10.30;;;9.23;;
32407;SDS011;18869;55.970;37.502;2022-10-23T02:48:31;12.53;;;9.63;;
32407;SDS011;18869;55.970;37.502;2022-10-23T02:51:04;12.97;;;9.90;;
32407;SDS011;18869;55.970;37.502;2022-10-23T02:53:35;11.27;;;9.17;;
32407;SDS011;18869;55.970;37.502;2022-10-23T02:56:07;13.00;;;10.20;;
32407;SDS011;18869;55.970;37.502;2022-10-23T02:58:44;12.17;;;9.40;;
32407;SDS011;18869;55.970;37.502;2022-10-23T03:01:15;12.53;;;9.47;;
32407;SDS011;18869;55.970;37.502;2022-10-23T03:03:44;14.40;;;10.33;;
32407;SDS011;18869;55.970;37.502;2022-10-23T03:06:14;13.37;;;9.83;;
32407;SDS011;18869;55.970;37.502;2022-10-23T03:08:41;12.60;;;9.93;;
32407;SDS011;18869;55.970;37.502;2022-10-23T03:11:09;15.30;;;9.83;;
32407;SDS011;18869;55.970;37.502;2022-10-23T03:13:37;11.83;;;9.90;;
32407;SDS011;18869;55.970;37.502;2022-10-23T03:16:06;14.33;;;9.83;;
32407;SDS011;18869;55.970;37.502;2022-10-23T03:18:33;12.57;;;9.63;;
32407;SDS011;18869;55.970;37.502;2022-10-23T03:21:01;17.47;;;11.70;;
32407;SDS011;18869;55.970;37.502;2022-10-23T03:23:31;15.90;;;11.03;;
32407;SDS011;18869;55.970;37.502;2022-10-23T03:25:59;13.73;;;9.97;;
32407;SDS011;18869;55.970;37.502;2022-10-23T03:28:28;13.67;;;10.40;;
32407;SDS011;18869;55.970;37.502;2022-10-23T03:30:57;16.63;;;12.10;;
32407;SDS011;18869;55.970;37.502;2022-10-23T03:33:28;14.70;;;11.23;;
32407;SDS011;18869;55.970;37.502;2022-10-23T03:35:57;13.47;;;10.23;;
32407;SDS011;18869;55.970;37.502;2022-10-23T03:38:25;22.77;;;11.63;;
32407;SDS011;18869;55.970;37.502;2022-10-23T03:40:53;13.23;;;9.77;;
32407;SDS011;18869;55.970;37.502;2022-10-23T03:43:21;13.93;;;11.60;;
32407;SDS011;18869;55.970;37.502;2022-10-23T03:45:48;14.90;;;11.33;;
32407;SDS011;18869;55.970;37.502;2022-10-23T03:48:16;14.50;;;10.47;;
32407;SDS011;18869;55.970;37.502;2022-10-23T03:50:46;13.50;;;10.40;;
32407;SDS011;18869;55.970;37.502;2022-10-23T03:53:13;14.33;;;11.10;;
32407;SDS011;18869;55.970;37.502;2022-10-23T03:55:41;18.50;;;10.87;;
32407;SDS011;18869;55.970;37.502;2022-10-23T03:58:10;14.83;;;10.63;;
32407;SDS011;18869;55.970;37.502;2022-10-23T04:00:37;14.60;;;10.90;;
32407;SDS011;18869;55.970;37.502;2022-10-23T04:03:07;16.67;;;11.87;;
32407;SDS011;18869;55.970;37.502;2022-10-23T04:05:35;21.37;;;11.73;;
32407;SDS011;18869;55.970;37.502;2022-10-23T04:08:05;14.53;;;11.83;;
32407;SDS011;18869;55.970;37.502;2022-10-23T04:10:33;14.93;;;11.33;;
32407;SDS011;18869;55.970;37.502;2022-10-23T04:13:01;14.20;;;11.70;;
32407;SDS011;18869;55.970;37.502;2022-10-23T04:15:31;16.63;;;11.90;;
32407;SDS011;18869;55.970;37.502;2022-10-23T04:18:00;17.43;;;12.43;;
32407;SDS011;18869;55.970;37.502;2022-10-23T04:20:29;16.43;;;11.67;;
32407;SDS011;18869;55.970;37.502;2022-10-23T04:23:00;15.47;;;11.87;;
32407;SDS011;18869;55.970;37.502;2022-10-23T04:25:33;13.87;;;11.10;;
32407;SDS011;18869;55.970;37.502;2022-10-23T04:28:02;18.50;;;12.33;;
32407;SDS011;18869;55.970;37.502;2022-10-23T04:30:31;16.60;;;11.97;;
32407;SDS011;18869;55.970;37.502;2022-10-23T04:32:59;16.60;;;12.37;;
32407;SDS011;18869;55.970;37.502;2022-10-23T04:35:27;15.73;;;11.83;;
32407;SDS011;18869;55.970;37.502;2022-10-23T04:37:55;20.63;;;12.73;;
32407;SDS011;18869;55.970;37.502;2022-10-23T04:40:22;26.93;;;13.43;;
32407;SDS011;18869;55.970;37.502;2022-10-23T04:42:52;15.63;;;12.47;;
32407;SDS011;18869;55.970;37.502;2022-10-23T04:45:20;23.23;;;12.70;;
32407;SDS011;18869;55.970;37.502;2022-10-23T04:47:47;21.77;;;14.10;;
32407;SDS011;18869;55.970;37.502;2022-10-23T04:50:15;20.80;;;13.03;;
32407;SDS011;18869;55.970;37.502;2022-10-23T04:53:02;18.77;;;13.40;;
32407;SDS011;18869;55.970;37.502;2022-10-23T04:55:31;17.20;;;12.83;;
32407;SDS011;18869;55.970;37.502;2022-10-23T04:58:03;20.00;;;13.07;;
32407;SDS011;18869;55.970;37.502;2022-10-23T05:00:31;18.10;;;12.90;;
32407;SDS011;18869;55.970;37.502;2022-10-23T05:02:59;18.83;;;13.23;;
32407;SDS011;18869;55.970;37.502;2022-10-23T05:05:28;17.50;;;12.97;;
32407;SDS011;18869;55.970;37.502;2022-10-23T05:07:57;18.60;;;13.77;;
32407;SDS011;18869;55.970;37.502;2022-10-23T05:10:24;19.57;;;13.63;;
32407;SDS011;18869;55.970;37.502;2022-10-23T05:12:52;18.40;;;13.13;;
32407;SDS011;18869;55.970;37.502;2022-10-23T05:15:22;19.60;;;13.70;;
32407;SDS011;18869;55.970;37.502;2022-10-23T05:17:50;17.83;;;12.73;;
32407;SDS011;18869;55.970;37.502;2022-10-23T05:20:20;17.37;;;11.50;;
32407;SDS011;18869;55.970;37.502;2022-10-23T05:22:49;19.13;;;11.40;;
32407;SDS011;18869;55.970;37.502;2022-10-23T05:25:19;18.30;;;11.23;;
32407;SDS011;18869;55.970;37.502;2022-10-23T05:27:47;17.40;;;11.00;;
32407;SDS011;18869;55.970;37.502;2022-10-23T05:30:14;15.83;;;10.57;;
32407;SDS011;18869;55.970;37.502;2022-10-23T05:32:43;13.33;;;10.43;;
32407;SDS011;18869;55.970;37.502;2022-10-23T05:35:12;13.07;;;10.93;;
32407;SDS011;18869;55.970;37.502;2022-10-23T05:37:44;18.13;;;11.40;;
32407;SDS011;18869;55.970;37.502;2022-10-23T05:40:15;16.90;;;10.00;;
32407;SDS011;18869;55.970;37.502;2022-10-23T05:42:44;14.37;;;11.27;;
32407;SDS011;18869;55.970;37.502;2022-10-23T05:45:12;17.00;;;11.10;;
32407;SDS011;18869;55.970;37.502;2022-10-23T05:47:43;15.30;;;10.93;;
32407;SDS011;18869;55.970;37.502;2022-10-23T05:50:13;18.20;;;12.37;;
32407;SDS011;18869;55.970;37.502;2022-10-23T05:52:45;15.20;;;11.90;;
32407;SDS011;18869;55.970;37.502;2022-10-23T05:55:14;17.40;;;11.83;;
32407;SDS011;18869;55.970;37.502;2022-10-23T05:57:43;16.97;;;12.73;;
32407;SDS011;18869;55.970;37.502;2022-10-23T06:00:11;17.13;;;12.27;;
32407;SDS011;18869;55.970;37.502;2022-10-23T06:02:39;18.43;;;12.00;;
32407;SDS011;18869;55.970;37.502;2022-10-23T06:05:10;18.33;;;12.13;;
32407;SDS011;18869;55.970;37.502;2022-10-23T06:07:39;22.40;;;13.57;;
32407;SDS011;18869;55.970;37.502;2022-10-23T06:10:08;15.90;;;11.97;;
32407;SDS011;18869;55.970;37.502;2022-10-23T06:12:37;14.60;;;12.00;;
32407;SDS011;18869;55.970;37.502;2022-10-23T06:15:07;19.13;;;11.47;;
32407;SDS011;18869;55.970;37.502;2022-10-23T06:17:38;15.80;;;11.63;;
32407;SDS011;18869;55.970;37.502;2022-10-23T06:20:07;20.40;;;12.13;;
32407;SDS011;18869;55.970;37.502;2022-10-23T06:22:41;19.33;;;12.93;;
32407;SDS011;18869;55.970;37.502;2022-10-23T06:25:10;15.90;;;12.10;;
32407;SDS011;18869;55.970;37.502;2022-10-23T06:27:38;17.87;;;12.83;;
32407;SDS011;18869;55.970;37.502;2022-10-23T06:30:07;19.63;;;13.37;;
32407;SDS011;18869;55.970;37.502;2022-10-23T06:32:36;17.63;;;12.13;;
32407;SDS011;18869;55.970;37.502;2022-10-23T06:35:05;20.87;;;11.77;;
32407;SDS011;18869;55.970;37.502;2022-10-23T06:37:34;22.63;;;11.57;;
32407;SDS011;18869;55.970;37.502;2022-10-23T06:40:05;20.40;;;12.20;;
32407;SDS011;18869;55.970;37.502;2022-10-23T06:42:33;17.80;;;12.20;;
32407;SDS011;18869;55.970;37.502;2022-10-23T06:45:03;16.80;;;11.70;;
32407;SDS011;18869;55.970;37.502;2022-10-23T06:47:33;16.47;;;12.07;;
32407;SDS011;18869;55.970;37.502;2022-10-23T06:50:03;19.27;;;12.17;;
32407;SDS011;18869;55.970;37.502;2022-10-23T06:52:31;17.70;;;11.23;;
32407;SDS011;18869;55.970;37.502;2022-10-23T06:54:59;19.63;;;12.90;;
32407;SDS011;18869;55.970;37.502;2022-10-23T06:57:30;20.50;;;11.33;;
32407;SDS011;18869;55.970;37.502;2022-10-23T07:00:00;14.80;;;11.10;;
32407;SDS011;18869;55.970;37.502;2022-10-23T07:02:33;21.57;;;13.83;;
32407;SDS011;18869;55.970;37.502;2022-10-23T07:05:04;16.50;;;12.87;;
32407;SDS011;18869;55.970;37.502;2022-10-23T07:07:33;15.93;;;12.00;;
32407;SDS011;18869;55.970;37.502;2022-10-23T07:10:02;25.57;;;13.37;;
32407;SDS011;18869;55.970;37.502;2022-10-23T07:12:33;18.07;;;12.27;;
32407;SDS011;18869;55.970;37.502;2022-10-23T07:15:04;17.90;;;12.13;;
32407;SDS011;18869;55.970;37.502;2022-10-23T07:17:32;20.53;;;12.17;;
32407;SDS011;18869;55.970;37.502;2022-10-23T07:19:59;22.87;;;12.00;;
32407;SDS011;18869;55.970;37.502;2022-10-23T07:22:29;14.30;;;11.43;;
32407;SDS011;18869;55.970;37.502;2022-10-23T07:25:00;22.70;;;11.30;;
32407;SDS011;18869;55.970;37.502;2022-10-23T07:27:29;18.23;;;13.13;;
32407;SDS011;18869;55.970;37.502;2022-10-23T07:30:00;20.67;;;12.27;;
32407;SDS011;18869;55.970;37.502;2022-10-23T07:32:29;16.50;;;11.53;;
32407;SDS011;18869;55.970;37.502;2022-10-23T07:35:01;24.43;;;13.27;;
32407;SDS011;18869;55.970;37.502;2022-10-23T07:37:29;18.63;;;13.30;;
32407;SDS011;18869;55.970;37.502;2022-10-23T07:39:57;17.60;;;12.07;;
32407;SDS011;18869;55.970;37.502;2022-10-23T07:42:25;23.37;;;13.37;;
32407;SDS011;18869;55.970;37.502;2022-10-23T07:44:52;17.73;;;13.07;;
32407;SDS011;18869;55.970;37.502;2022-10-23T07:47:22;22.43;;;13.53;;
32407;SDS011;18869;55.970;37.502;2022-10-23T07:49:50;25.47;;;13.90;;
32407;SDS011;18869;55.970;37.502;2022-10-23T07:52:19;20.70;;;12.47;;
32407;SDS011;18869;55.970;37.502;2022-10-23T07:54:49;22.37;;;14.33;;
32407;SDS011;18869;55.970;37.502;2022-10-23T07:57:18;28.60;;;15.50;;
32407;SDS011;18869;55.970;37.502;2022-10-23T07:59:46;28.23;;;14.47;;
32407;SDS011;18869;55.970;37.502;2022-10-23T08:02:14;25.93;;;13.80;;
32407;SDS011;18869;55.970;37.502;2022-10-23T08:04:47;25.60;;;14.70;;
32407;SDS011;18869;55.970;37.502;2022-10-23T08:07:16;26.50;;;13.60;;
32407;SDS011;18869;55.970;37.502;2022-10-23T08:09:44;21.57;;;14.47;;
32407;SDS011;18869;55.970;37.502;2022-10-23T08:12:11;24.57;;;13.57;;
32407;SDS011;18869;55.970;37.502;2022-10-23T08:14:39;21.40;;;13.27;;
32407;SDS011;18869;55.970;37.502;2022-10-23T08:17:06;24.80;;;14.53;;
32407;SDS011;18869;55.970;37.502;2022-10-23T08:19:38;24.87;;;13.97;;
32407;SDS011;18869;55.970;37.502;2022-10-23T08:22:12;29.57;;;13.63;;
32407;SDS011;18869;55.970;37.502;2022-10-23T08:24:40;18.70;;;12.90;;
32407;SDS011;18869;55.970;37.502;2022-10-23T08:27:08;21.00;;;13.80;;
32407;SDS011;18869;55.970;37.502;2022-10-23T08:29:38;20.20;;;13.13;;
32407;SDS011;18869;55.970;37.502;2022-10-23T08:32:06;22.90;;;13.73;;
32407;SDS011;18869;55.970;37.502;2022-10-23T08:34:34;20.13;;;14.07;;
32407;SDS011;18869;55.970;37.502;2022-10-23T08:37:02;24.73;;;14.20;;
32407;SDS011;18869;55.970;37.502;2022-10-23T08:39:34;22.40;;;15.00;;
32407;SDS011;18869;55.970;37.502;2022-10-23T08:42:03;28.97;;;14.20;;
32407;SDS011;18869;55.970;37.502;2022-10-23T08:44:31;23.33;;;14.73;;
32407;SDS011;18869;55.970;37.502;2022-10-23T08:47:01;30.83;;;15.23;;
32407;SDS011;18869;55.970;37.502;2022-10-23T08:49:39;25.90;;;15.00;;
32407;SDS011;18869;55.970;37.502;2022-10-23T08:52:13;28.13;;;14.80;;
32407;SDS011;18869;55.970;37.502;2022-10-23T08:54:53;30.20;;;15.33;;
32407;SDS011;18869;55.970;37.502;2022-10-23T08:57:25;28.40;;;15.17;;
32407;SDS011;18869;55.970;37.502;2022-10-23T08:59:59;28.83;;;16.10;;
32407;SDS011;18869;55.970;37.502;2022-10-23T09:02:31;28.47;;;16.63;;
32407;SDS011;18869;55.970;37.502;2022-10-23T09:05:01;29.33;;;16.13;;
32407;SDS011;18869;55.970;37.502;2022-10-23T09:07:33;25.33;;;16.97;;
32407;SDS011;18869;55.970;37.502;2022-10-23T09:10:19;25.43;;;15.83;;
32407;SDS011;18869;55.970;37.502;2022-10-23T09:13:01;31.53;;;17.13;;
32407;SDS011;18869;55.970;37.502;2022-10-23T09:15:38;29.47;;;16.50;;
32407;SDS011;18869;55.970;37.502;2022-10-23T09:18:10;26.57;;;17.40;;
32407;SDS011;18869;55.970;37.502;2022-10-23T09:20:39;30.90;;;17.10;;
32407;SDS011;18869;55.970;37.502;2022-10-23T09:23:11;28.70;;;18.20;;
32407;SDS011;18869;55.970;37.502;2022-10-23T09:25:43;36.57;;;18.17;;
32407;SDS011;18869;55.970;37.502;2022-10-23T09:28:15;33.17;;;17.87;;
32407;SDS011;18869;55.970;37.502;2022-10-23T09:30:46;27.37;;;18.33;;
32407;SDS011;18869;55.970;37.502;2022-10-23T09:33:16;28.27;;;17.90;;
32407;SDS011;18869;55.970;37.502;2022-10-23T09:35:51;30.83;;;18.50;;
32407;SDS011;18869;55.970;37.502;2022-10-23T09:38:24;31.93;;;19.37;;
32407;SDS011;18869;55.970;37.502;2022-10-23T09:40:55;34.53;;;18.97;;
32407;SDS011;18869;55.970;37.502;2022-10-23T09:43:25;40.83;;;21.03;;
32407;SDS011;18869;55.970;37.502;2022-10-23T09:45:57;33.43;;;18.73;;
32407;SDS011;18869;55.970;37.502;2022-10-23T09:48:25;31.80;;;20.07;;
32407;SDS011;18869;55.970;37.502;2022-10-23T09:50:54;34.37;;;19.93;;
32407;SDS011;18869;55.970;37.502;2022-10-23T09:53:29;31.63;;;19.83;;
32407;SDS011;18869;55.970;37.502;2022-10-23T09:56:01;35.03;;;18.90;;
32407;SDS011;18869;55.970;37.502;2022-10-23T09:58:34;33.13;;;19.37;;
32407;SDS011;18869;55.970;37.502;2022-10-23T10:01:03;31.40;;;18.70;;
32407;SDS011;18869;55.970;37.502;2022-10-23T10:03:37;31.37;;;18.23;;
32407;SDS011;18869;55.970;37.502;2022-10-23T10:06:05;34.30;;;20.23;;
32407;SDS011;18869;55.970;37.502;2022-10-23T10:08:48;33.63;;;18.33;;
32407;SDS011;18869;55.970;37.502;2022-10-23T10:11:18;32.27;;;19.23;;
32407;SDS011;18869;55.970;37.502;2022-10-23T10:17:02;37.03;;;20.10;;
32407;SDS011;18869;55.970;37.502;2022-10-23T10:19:37;30.60;;;18.57;;
32407;SDS011;18869;55.970;37.502;2022-10-23T10:22:15;36.90;;;20.80;;
32407;SDS011;18869;55.970;37.502;2022-10-23T10:24:51;35.70;;;20.13;;
32407;SDS011;18869;55.970;37.502;2022-10-23T10:27:30;35.73;;;19.77;;
32407;SDS011;18869;55.970;37.502;2022-10-23T10:30:06;34.03;;;19.97;;
32407;SDS011;18869;55.970;37.502;2022-10-23T10:32:38;40.30;;;21.37;;
32407;SDS011;18869;55.970;37.502;2022-10-23T10:35:17;35.87;;;22.10;;
32407;SDS011;18869;55.970;37.502;2022-10-23T10:37:53;34.07;;;20.83;;
32407;SDS011;18869;55.970;37.502;2022-10-23T10:40:29;33.10;;;18.83;;
32407;SDS011;18869;55.970;37.502;2022-10-23T10:43:06;38.63;;;21.13;;
32407;SDS011;18869;55.970;37.502;2022-10-23T10:45:40;37.07;;;20.73;;
32407;SDS011;18869;55.970;37.502;2022-10-23T10:48:13;42.40;;;21.30;;
32407;SDS011;18869;55.970;37.502;2022-10-23T10:50:52;39.77;;;20.93;;
32407;SDS011;18869;55.970;37.502;2022-10-23T10:53:23;37.63;;;20.13;;
32407;SDS011;18869;55.970;37.502;2022-10-23T10:55:57;36.33;;;21.13;;
32407;SDS011;18869;55.970;37.502;2022-10-23T10:58:29;41.97;;;19.13;;
32407;SDS011;18869;55.970;37.502;2022-10-23T11:01:03;35.23;;;19.97;;
32407;SDS011;18869;55.970;37.502;2022-10-23T11:03:35;39.17;;;22.23;;
32407;SDS011;18869;55.970;37.502;2022-10-23T11:06:11;41.13;;;23.07;;
32407;SDS011;18869;55.970;37.502;2022-10-23T11:08:43;48.40;;;24.90;;
32407;SDS011;18869;55.970;37.502;2022-10-23T11:11:12;40.07;;;23.23;;
32407;SDS011;18869;55.970;37.502;2022-10-23T11:13:43;36.53;;;21.90;;
32407;SDS011;18869;55.970;37.502;2022-10-23T11:16:13;39.63;;;21.27;;
32407;SDS011;18869;55.970;37.502;2022-10-23T11:18:45;41.60;;;22.60;;
32407;SDS011;18869;55.970;37.502;2022-10-23T11:21:22;40.37;;;23.33;;
32407;SDS011;18869;55.970;37.502;2022-10-23T11:27:12;49.27;;;23.77;;
32407;SDS011;18869;55.970;37.502;2022-10-23T11:30:03;50.30;;;24.83;;
32407;SDS011;18869;55.970;37.502;2022-10-23T11:32:43;39.17;;;22.30;;
32407;SDS011;18869;55.970;37.502;2022-10-23T11:35:47;47.27;;;23.60;;
32407;SDS011;18869;55.970;37.502;2022-10-23T11:38:23;46.00;;;23.77;;
32407;SDS011;18869;55.970;37.502;2022-10-23T11:40:52;44.87;;;23.03;;
32407;SDS011;18869;55.970;37.502;2022-10-23T11:43:28;40.77;;;23.10;;
32407;SDS011;18869;55.970;37.502;2022-10-23T11:46:09;43.17;;;21.50;;
32407;SDS011;18869;55.970;37.502;2022-10-23T11:48:39;37.20;;;21.73;;
32407;SDS011;18869;55.970;37.502;2022-10-23T11:54:04;37.83;;;20.67;;
32407;SDS011;18869;55.970;37.502;2022-10-23T11:56:32;36.27;;;21.17;;
32407;SDS011;18869;55.970;37.502;2022-10-23T11:59:17;35.83;;;20.90;;
32407;SDS011;18869;55.970;37.502;2022-10-23T12:01:49;39.53;;;21.53;;
32407;SDS011;18869;55.970;37.502;2022-10-23T12:04:20;37.70;;;21.27;;
32407;SDS011;18869;55.970;37.502;2022-10-23T12:06:49;38.27;;;21.70;;
32407;SDS011;18869;55.970;37.502;2022-10-23T12:09:22;47.70;;;24.37;;
32407;SDS011;18869;55.970;37.502;2022-10-23T12:12:01;39.07;;;21.90;;
32407;SDS011;18869;55.970;37.502;2022-10-23T12:14:40;40.70;;;22.10;;
32407;SDS011;18869;55.970;37.502;2022-10-23T12:17:31;42.80;;;21.07;;
32407;SDS011;18869;55.970;37.502;2022-10-23T12:20:15;45.43;;;25.07;;
32407;SDS011;18869;55.970;37.502;2022-10-23T12:22:47;40.03;;;21.70;;
32407;SDS011;18869;55.970;37.502;2022-10-23T12:25:22;34.53;;;20.40;;
32407;SDS011;18869;55.970;37.502;2022-10-23T12:27:55;39.80;;;20.07;;
32407;SDS011;18869;55.970;37.502;2022-10-23T12:30:28;39.93;;;20.47;;
32407;SDS011;18869;55.970;37.502;2022-10-23T12:33:03;42.57;;;20.73;;
32407;SDS011;18869;55.970;37.502;2022-10-23T12:35:55;34.50;;;19.97;;
32407;SDS011;18869;55.970;37.502;2022-10-23T12:38:29;37.20;;;20.60;;
32407;SDS011;18869;55.970;37.502;2022-10-23T12:40:59;36.93;;;20.73;;
32407;SDS011;18869;55.970;37.502;2022-10-23T12:43:29;39.83;;;20.70;;
32407;SDS011;18869;55.970;37.502;2022-10-23T12:45:59;37.57;;;21.03;;
32407;SDS011;18869;55.970;37.502;2022-10-23T12:48:32;40.37;;;20.63;;
32407;SDS011;18869;55.970;37.502;2022-10-23T12:51:00;37.20;;;19.30;;
32407;SDS011;18869;55.970;37.502;2022-10-23T12:53:31;38.23;;;19.60;;
32407;SDS011;18869;55.970;37.502;2022-10-23T12:56:02;33.80;;;19.23;;
32407;SDS011;18869;55.970;37.502;2022-10-23T12:58:32;36.27;;;20.03;;
32407;SDS011;18869;55.970;37.502;2022-10-23T13:01:05;39.00;;;20.47;;
32407;SDS011;18869;55.970;37.502;2022-10-23T13:03:35;39.67;;;21.47;;
32407;SDS011;18869;55.970;37.502;2022-10-23T13:06:08;39.77;;;19.83;;
32407;SDS011;18869;55.970;37.502;2022-10-23T13:08:38;30.67;;;19.40;;
32407;SDS011;18869;55.970;37.502;2022-10-23T13:11:11;34.73;;;18.17;;
32407;SDS011;18869;55.970;37.502;2022-10-23T13:13:40;59.80;;;30.43;;
32407;SDS011;18869;55.970;37.502;2022-10-23T13:16:12;66.27;;;33.80;;
32407;SDS011;18869;55.970;37.502;2022-10-23T13:18:42;39.57;;;22.07;;
32407;SDS011;18869;55.970;37.502;2022-10-23T13:21:14;84.63;;;34.67;;
32407;SDS011;18869;55.970;37.502;2022-10-23T13:23:45;191.93;;;73.40;;
32407;SDS011;18869;55.970;37.502;2022-10-23T13:26:23;122.67;;;52.90;;
32407;SDS011;18869;55.970;37.502;2022-10-23T13:28:54;57.17;;;26.23;;
32407;SDS011;18869;55.970;37.502;2022-10-23T13:31:24;46.83;;;22.13;;
32407;SDS011;18869;55.970;37.502;2022-10-23T13:34:06;45.40;;;22.67;;
32407;SDS011;18869;55.970;37.502;2022-10-23T13:36:51;39.80;;;22.23;;
32407;SDS011;18869;55.970;37.502;2022-10-23T13:39:22;37.57;;;21.70;;
32407;SDS011;18869;55.970;37.502;2022-10-23T13:41:51;29.27;;;19.10;;
32407;SDS011;18869;55.970;37.502;2022-10-23T13:44:19;33.87;;;19.27;;
32407;SDS011;18869;55.970;37.502;2022-10-23T13:46:48;32.17;;;18.23;;
32407;SDS011;18869;55.970;37.502;2022-10-23T13:49:19;29.90;;;17.83;;
32407;SDS011;18869;55.970;37.502;2022-10-23T13:51:48;28.50;;;16.80;;
32407;SDS011;18869;55.970;37.502;2022-10-23T13:54:18;33.00;;;18.30;;
32407;SDS011;18869;55.970;37.502;2022-10-23T13:56:46;34.73;;;19.27;;
32407;SDS011;18869;55.970;37.502;2022-10-23T13:59:14;28.47;;;17.33;;
32407;SDS011;18869;55.970;37.502;2022-10-23T14:01:43;31.67;;;17.63;;
32407;SDS011;18869;55.970;37.502;2022-10-23T14:04:11;39.33;;;19.40;;
32407;SDS011;18869;55.970;37.502;2022-10-23T14:06:41;32.23;;;18.70;;
32407;SDS011;18869;55.970;37.502;2022-10-23T14:09:10;35.07;;;19.60;;
32407;SDS011;18869;55.970;37.502;2022-10-23T14:11:41;39.77;;;21.77;;
32407;SDS011;18869;55.970;37.502;2022-10-23T14:14:10;39.37;;;20.93;;
32407;SDS011;18869;55.970;37.502;2022-10-23T14:16:40;43.03;;;21.77;;
32407;SDS011;18869;55.970;37.502;2022-10-23T14:19:09;40.70;;;21.17;;
32407;SDS011;18869;55.970;37.502;2022-10-23T14:21:41;38.30;;;20.07;;
32407;SDS011;18869;55.970;37.502;2022-10-23T14:24:11;31.80;;;18.97;;
32407;SDS011;18869;55.970;37.502;2022-10-23T14:26:39;28.57;;;15.93;;
32407;SDS011;18869;55.970;37.502;2022-10-23T14:29:07;29.50;;;18.07;;
32407;SDS011;18869;55.970;37.502;2022-10-23T14:31:35;31.93;;;17.67;;
32407;SDS011;18869;55.970;37.502;2022-10-23T14:34:07;29.63;;;18.07;;
32407;SDS011;18869;55.970;37.502;2022-10-23T14:36:35;28.50;;;17.17;;
32407;SDS011;18869;55.970;37.502;2022-10-23T14:39:06;30.57;;;17.53;;
32407;SDS011;18869;55.970;37.502;2022-10-23T14:41:36;30.13;;;16.23;;
32407;SDS011;18869;55.970;37.502;2022-10-23T14:44:06;27.53;;;17.17;;